createdAt,value
2023-01-29T00:01:57.832Z,-0.41
2023-01-29T00:04:25.031Z,-0.39
2023-01-29T00:06:52.159Z,-0.35
2023-01-29T00:09:19.491Z,-0.31
2023-01-29T00:11:47.020Z,-0.29
2023-01-29T00:14:14.225Z,-0.19
2023-01-29T00:16:41.437Z,-0.30
2023-01-29T00:19:08.647Z,-0.33
2023-01-29T00:21:35.788Z,-0.42
2023-01-29T00:24:02.952Z,-0.54
2023-01-29T00:26:30.575Z,-0.52
2023-01-29T00:28:57.709Z,-0.48
2023-01-29T00:31:25.386Z,-0.44
2023-01-29T00:33:53.360Z,-0.45
2023-01-29T00:36:21.975Z,-0.47
2023-01-29T00:39:02.389Z,-0.36
2023-01-29T00:41:50.388Z,-0.37
2023-01-29T00:44:36.758Z,-0.42
2023-01-29T00:47:04.618Z,-0.46
2023-01-29T00:49:31.796Z,-0.42
2023-01-29T00:52:25.381Z,-0.37
2023-01-29T00:54:54.275Z,-0.38
2023-01-29T00:57:21.899Z,-0.37
2023-01-29T00:59:49.027Z,-0.34
2023-01-29T01:02:34.969Z,-0.36
2023-01-29T01:05:06.147Z,-0.43
2023-01-29T01:07:34.126Z,-0.45
2023-01-29T01:10:19.688Z,-0.47
2023-01-29T01:12:51.968Z,-0.45
2023-01-29T01:15:19.283Z,-0.39
2023-01-29T01:17:48.796Z,-0.44
2023-01-29T01:20:16.376Z,-0.45
2023-01-29T01:22:43.724Z,-0.43
2023-01-29T01:25:10.955Z,-0.47
2023-01-29T01:27:41.094Z,-0.32
2023-01-29T01:30:14.110Z,-0.32
2023-01-29T01:32:42.315Z,-0.38
2023-01-29T01:35:10.663Z,-0.43
2023-01-29T01:37:38.613Z,-0.43
2023-01-29T01:40:12.763Z,-0.46
2023-01-29T01:42:40.344Z,-0.41
2023-01-29T01:45:19.185Z,-0.39
2023-01-29T01:47:51.960Z,-0.38
2023-01-29T01:50:23.816Z,-0.41
2023-01-29T01:52:58.363Z,-0.42
2023-01-29T01:55:28.187Z,-0.36
2023-01-29T01:57:58.346Z,-0.30
2023-01-29T02:00:26.697Z,-0.31
2023-01-29T02:03:13.047Z,-0.35
2023-01-29T02:05:59.657Z,-0.37
2023-01-29T02:08:59.751Z,-0.36
2023-01-29T02:11:26.882Z,-0.36
2023-01-29T02:13:53.968Z,-0.30
2023-01-29T02:16:22.009Z,-0.32
2023-01-29T02:18:49.565Z,-0.29
2023-01-29T02:21:38.545Z,-0.24
2023-01-29T02:24:32.843Z,-0.24
2023-01-29T02:27:13.717Z,-0.21
2023-01-29T02:30:05.661Z,-0.16
2023-01-29T02:32:58.633Z,-0.22
2023-01-29T02:35:32.550Z,-0.24
2023-01-29T02:38:18.094Z,-0.24
2023-01-29T02:41:12.689Z,-0.20
2023-01-29T02:43:57.109Z,-0.23
2023-01-29T02:46:47.702Z,-0.22
2023-01-29T02:49:35.444Z,-0.18
2023-01-29T02:52:26.796Z,-0.18
2023-01-29T02:55:04.748Z,-0.21
2023-01-29T02:57:37.881Z,-0.21
2023-01-29T03:00:10.411Z,-0.20
2023-01-29T03:03:02.396Z,-0.25
2023-01-29T03:05:58.699Z,-0.27
2023-01-29T03:08:36.829Z,-0.21
2023-01-29T03:11:06.523Z,-0.16
2023-01-29T03:13:54.614Z,-0.15
2023-01-29T03:16:28.150Z,-0.11
2023-01-29T03:19:02.221Z,-0.05
2023-01-29T03:21:58.907Z,-0.02
2023-01-29T03:24:57.684Z,-0.03
2023-01-29T03:27:50.272Z,-0.09
2023-01-29T03:30:37.496Z,-0.08
2023-01-29T03:33:07.041Z,-0.06
2023-01-29T03:35:37.470Z,-0.07
2023-01-29T03:38:06.362Z,-0.03
2023-01-29T03:40:49.317Z,-0.05
2023-01-29T03:43:56.659Z,-0.07
2023-01-29T03:46:34.357Z,-0.06
2023-01-29T03:49:08.623Z,-0.08
2023-01-29T03:51:50.172Z,-0.08
2023-01-29T03:54:29.175Z,-0.03
2023-01-29T03:57:01.979Z,-0.08
2023-01-29T03:59:42.623Z,-0.07
2023-01-29T04:02:21.879Z,-0.06
2023-01-29T04:04:51.942Z,-0.08
2023-01-29T04:07:24.425Z,-0.07
2023-01-29T04:09:54.891Z,-0.07
2023-01-29T04:12:29.930Z,-0.08
2023-01-29T04:15:00.131Z,-0.09
2023-01-29T04:17:37.406Z,-0.10
2023-01-29T04:20:05.446Z,-0.06
2023-01-29T04:22:34.696Z,-0.05
2023-01-29T04:25:15.966Z,-0.06
2023-01-29T04:27:52.000Z,-0.08
2023-01-29T04:30:42.468Z,-0.05
2023-01-29T04:33:15.849Z,-0.08
2023-01-29T04:35:59.958Z,-0.19
2023-01-29T04:38:47.732Z,-0.16
2023-01-29T04:41:26.187Z,-0.14
2023-01-29T04:44:00.965Z,-0.15
2023-01-29T04:46:35.197Z,-0.17
2023-01-29T04:49:23.768Z,-0.20
2023-01-29T04:51:54.100Z,-0.20
2023-01-29T04:54:40.467Z,-0.23
2023-01-29T04:57:13.604Z,-0.22
2023-01-29T04:59:43.314Z,-0.23
2023-01-29T05:02:11.899Z,-0.25
2023-01-29T05:04:41.079Z,-0.21
2023-01-29T05:07:12.528Z,-0.22
2023-01-29T05:09:40.312Z,-0.26
2023-01-29T05:12:09.421Z,-0.21
2023-01-29T05:14:37.705Z,-0.22
2023-01-29T05:17:09.685Z,-0.26
2023-01-29T05:19:36.902Z,-0.28
2023-01-29T05:22:05.528Z,-0.22
2023-01-29T05:24:32.670Z,-0.23
2023-01-29T05:27:18.384Z,-0.22
2023-01-29T05:29:46.848Z,-0.19
2023-01-29T05:32:15.240Z,-0.17
2023-01-29T05:34:42.448Z,-0.18
2023-01-29T05:37:10.462Z,-0.19
2023-01-29T05:39:37.534Z,-0.21
2023-01-29T05:42:04.678Z,-0.14
2023-01-29T05:44:31.926Z,-0.14
2023-01-29T05:46:59.055Z,-0.16
2023-01-29T05:49:26.345Z,-0.17
2023-01-29T05:51:53.453Z,-0.14
2023-01-29T05:54:20.595Z,-0.12
2023-01-29T05:56:47.763Z,-0.11
2023-01-29T05:59:16.130Z,-0.08
2023-01-29T06:01:43.323Z,-0.08
2023-01-29T06:04:10.443Z,-0.08
2023-01-29T06:06:37.550Z,-0.01
2023-01-29T06:09:04.774Z,-0.03
2023-01-29T06:11:31.950Z,-0.04
2023-01-29T06:13:59.102Z,-0.01
2023-01-29T06:16:26.245Z,0.00
2023-01-29T06:18:53.403Z,-0.02
2023-01-29T06:21:20.546Z,-0.06
2023-01-29T06:23:47.711Z,-0.07
2023-01-29T06:26:15.945Z,-0.02
2023-01-29T06:28:45.045Z,-0.05
2023-01-29T06:31:30.476Z,-0.07
2023-01-29T06:33:59.488Z,-0.06
2023-01-29T06:36:26.693Z,-0.06
2023-01-29T06:38:53.855Z,-0.08
2023-01-29T06:41:25.167Z,-0.11
2023-01-29T06:43:52.276Z,-0.12
2023-01-29T06:46:19.779Z,-0.11
2023-01-29T06:48:46.930Z,-0.11
2023-01-29T06:51:14.212Z,-0.06
2023-01-29T06:53:42.813Z,-0.03
2023-01-29T06:56:10.633Z,0.03
2023-01-29T06:58:38.282Z,0.05
2023-01-29T07:01:07.374Z,0.09
2023-01-29T07:03:34.558Z,0.23
2023-01-29T07:06:01.771Z,0.18
2023-01-29T07:08:28.938Z,0.15
2023-01-29T07:11:00.484Z,0.14
2023-01-29T07:13:27.745Z,0.20
2023-01-29T07:15:57.782Z,0.19
2023-01-29T07:18:25.057Z,0.17
2023-01-29T07:20:52.133Z,0.21
2023-01-29T07:23:19.291Z,0.21
2023-01-29T07:25:46.516Z,0.18
2023-01-29T07:28:13.615Z,0.11
2023-01-29T07:30:40.743Z,0.11
2023-01-29T07:33:09.471Z,0.14
2023-01-29T07:35:38.340Z,0.19
2023-01-29T07:38:06.036Z,0.20
2023-01-29T07:40:33.521Z,0.19
2023-01-29T07:43:01.600Z,0.13
2023-01-29T07:45:32.029Z,0.14
2023-01-29T07:47:59.392Z,0.13
2023-01-29T07:50:27.070Z,0.12
2023-01-29T07:52:54.763Z,0.18
2023-01-29T07:55:21.977Z,0.20
2023-01-29T07:57:56.154Z,0.20
2023-01-29T08:00:23.483Z,0.19
2023-01-29T08:02:50.820Z,0.20
2023-01-29T08:05:18.060Z,0.21
2023-01-29T08:07:49.333Z,0.27
2023-01-29T08:10:21.877Z,0.26
2023-01-29T08:12:57.152Z,0.24
2023-01-29T08:15:25.091Z,0.31
2023-01-29T08:17:58.059Z,0.27
2023-01-29T08:20:25.863Z,0.26
2023-01-29T08:23:04.608Z,0.29
2023-01-29T08:25:32.303Z,0.30
2023-01-29T08:28:00.658Z,0.32
2023-01-29T08:30:30.609Z,0.31
2023-01-29T08:32:57.835Z,0.40
2023-01-29T08:35:25.478Z,0.39
2023-01-29T08:37:54.297Z,0.37
2023-01-29T08:40:21.666Z,0.35
2023-01-29T08:42:48.875Z,0.38
2023-01-29T08:45:16.188Z,0.40
2023-01-29T08:47:47.563Z,0.43
2023-01-29T08:50:15.782Z,0.51
2023-01-29T08:52:43.997Z,0.54
2023-01-29T08:55:11.578Z,0.49
2023-01-29T08:57:39.339Z,0.52
2023-01-29T09:00:09.225Z,0.54
2023-01-29T09:02:37.015Z,0.58
2023-01-29T09:05:04.444Z,0.59
2023-01-29T09:07:31.563Z,0.57
2023-01-29T09:09:58.920Z,0.56
2023-01-29T09:12:26.155Z,0.60
2023-01-29T09:14:53.500Z,0.59
2023-01-29T09:17:20.712Z,0.59
2023-01-29T09:19:47.849Z,0.68
2023-01-29T09:22:14.994Z,0.66
2023-01-29T09:24:42.111Z,0.69
2023-01-29T09:27:11.865Z,0.66
2023-01-29T09:29:39.089Z,0.64
2023-01-29T09:32:07.113Z,0.70
2023-01-29T09:34:34.938Z,0.69
2023-01-29T09:37:02.094Z,0.63
2023-01-29T09:39:29.595Z,0.73
2023-01-29T09:42:18.521Z,0.82
2023-01-29T09:44:57.435Z,0.88
2023-01-29T09:47:26.729Z,0.92
2023-01-29T09:50:10.968Z,0.93
2023-01-29T09:52:40.544Z,0.92
2023-01-29T09:55:16.245Z,0.89
2023-01-29T09:57:43.298Z,0.95
2023-01-29T10:00:15.948Z,0.92
2023-01-29T10:10:59.608Z,1.03
2023-01-29T10:13:26.784Z,1.11
2023-01-29T10:16:08.893Z,1.20
2023-01-29T10:19:00.762Z,1.21
2023-01-29T10:21:46.370Z,1.27
2023-01-29T10:24:25.455Z,1.31
2023-01-29T10:26:52.897Z,1.31
2023-01-29T10:29:21.982Z,1.32
2023-01-29T10:32:04.974Z,1.39
2023-01-29T10:34:36.611Z,1.46
2023-01-29T10:37:16.853Z,1.52
2023-01-29T10:39:44.207Z,1.52
2023-01-29T10:42:19.628Z,1.56
2023-01-29T10:45:20.675Z,1.57
2023-01-29T10:48:26.347Z,1.61
2023-01-29T10:50:59.142Z,1.69
2023-01-29T10:53:45.112Z,1.67
2023-01-29T10:56:30.190Z,1.72
2023-01-29T10:59:01.939Z,1.81
2023-01-29T11:01:29.253Z,1.93
2023-01-29T11:03:58.628Z,1.95
2023-01-29T11:06:33.317Z,1.93
2023-01-29T11:09:26.432Z,1.93
2023-01-29T11:12:11.802Z,1.97
2023-01-29T11:14:45.967Z,2.04
2023-01-29T11:17:17.816Z,2.08
2023-01-29T11:19:48.164Z,2.04
2023-01-29T11:22:20.251Z,2.07
2023-01-29T11:25:08.136Z,2.17
2023-01-29T11:27:41.100Z,2.11
2023-01-29T11:30:26.144Z,2.19
2023-01-29T11:33:24.028Z,2.27
2023-01-29T11:35:52.609Z,2.32
2023-01-29T11:38:23.736Z,2.34
2023-01-29T11:40:51.294Z,2.42
2023-01-29T11:43:19.655Z,2.47
2023-01-29T11:45:51.404Z,2.40
2023-01-29T11:48:20.820Z,2.38
2023-01-29T11:50:53.063Z,2.41
2023-01-29T11:53:47.361Z,2.41
2023-01-29T11:56:30.307Z,2.42
2023-01-29T11:58:58.143Z,2.40
2023-01-29T12:01:36.237Z,2.44
2023-01-29T12:04:18.163Z,2.50
2023-01-29T12:06:47.876Z,2.55
2023-01-29T12:09:23.820Z,2.65
2023-01-29T12:11:52.608Z,2.66
2023-01-29T12:14:34.437Z,2.68
2023-01-29T12:17:20.219Z,2.67
2023-01-29T12:19:52.567Z,2.65
2023-01-29T12:22:27.497Z,2.70
2023-01-29T12:24:56.439Z,2.64
2023-01-29T12:27:55.754Z,2.64
2023-01-29T12:30:29.055Z,2.65
2023-01-29T12:33:30.712Z,2.69
2023-01-29T12:36:29.052Z,2.70
2023-01-29T12:38:56.515Z,2.78
2023-01-29T12:41:46.182Z,2.81
2023-01-29T12:44:45.040Z,2.73
2023-01-29T12:47:20.753Z,2.86
2023-01-29T12:49:48.328Z,2.87
2023-01-29T12:52:33.353Z,2.76
2023-01-29T12:55:04.040Z,2.68
2023-01-29T12:57:51.869Z,2.68
2023-01-29T13:00:51.913Z,2.61
2023-01-29T13:03:33.862Z,2.62
2023-01-29T13:06:07.014Z,2.62
2023-01-29T13:08:41.581Z,2.60
2023-01-29T13:11:13.908Z,2.57
2023-01-29T13:13:53.994Z,2.65
2023-01-29T13:16:31.962Z,2.69
2023-01-29T13:19:01.820Z,2.72
2023-01-29T13:21:38.925Z,2.67
2023-01-29T13:24:13.220Z,2.72
2023-01-29T13:26:40.989Z,2.71
2023-01-29T13:29:20.036Z,2.69
2023-01-29T13:31:48.334Z,2.69
2023-01-29T13:34:31.598Z,2.64
2023-01-29T13:37:01.605Z,2.63
2023-01-29T13:39:29.705Z,2.70
2023-01-29T13:41:58.704Z,2.69
2023-01-29T13:44:26.086Z,2.65
2023-01-29T13:47:02.151Z,2.64
2023-01-29T13:49:41.868Z,2.62
2023-01-29T13:52:17.078Z,2.59
2023-01-29T13:54:55.524Z,2.57
2023-01-29T13:57:44.488Z,2.60
2023-01-29T14:00:20.874Z,2.51
2023-01-29T14:03:13.713Z,2.63
2023-01-29T14:05:56.946Z,2.54
2023-01-29T14:08:39.040Z,2.53
2023-01-29T14:11:15.298Z,2.47
2023-01-29T14:13:44.369Z,2.43
2023-01-29T14:16:11.474Z,2.39
2023-01-29T14:18:58.961Z,2.45
2023-01-29T14:21:30.473Z,2.41
2023-01-29T14:24:00.427Z,2.34
2023-01-29T14:26:56.925Z,2.30
2023-01-29T14:29:34.629Z,2.29
2023-01-29T14:32:08.086Z,2.32
2023-01-29T14:34:36.221Z,2.29
2023-01-29T14:37:19.918Z,2.24
2023-01-29T14:39:57.728Z,2.21
2023-01-29T14:42:27.845Z,2.08
2023-01-29T14:44:55.280Z,2.07
2023-01-29T14:47:46.179Z,2.00
2023-01-29T14:50:28.470Z,2.05
2023-01-29T14:53:29.273Z,2.01
2023-01-29T14:56:28.664Z,2.01
2023-01-29T14:59:05.402Z,2.01
2023-01-29T15:01:38.113Z,2.02
2023-01-29T15:04:27.644Z,1.93
2023-01-29T15:07:09.947Z,1.93
2023-01-29T15:09:47.004Z,1.86
2023-01-29T15:12:23.393Z,1.88
2023-01-29T15:14:50.691Z,1.78
2023-01-29T15:17:26.642Z,1.76
2023-01-29T15:19:53.960Z,1.71
2023-01-29T15:22:23.380Z,1.73
2023-01-29T15:25:05.000Z,1.82
2023-01-29T15:27:32.111Z,1.77
2023-01-29T15:30:01.536Z,1.78
2023-01-29T15:32:33.737Z,1.74
2023-01-29T15:35:02.658Z,1.71
2023-01-29T15:37:32.831Z,1.71
2023-01-29T15:40:01.170Z,1.73
2023-01-29T15:42:29.864Z,1.72
2023-01-29T15:44:57.131Z,1.64
2023-01-29T15:47:31.533Z,1.67
2023-01-29T15:50:00.065Z,1.70
2023-01-29T15:52:30.046Z,1.69
2023-01-29T15:54:57.988Z,1.63
2023-01-29T15:57:34.186Z,1.68
2023-01-29T16:00:01.745Z,1.73
2023-01-29T16:02:34.791Z,1.63
2023-01-29T16:05:03.431Z,1.67
2023-01-29T16:07:30.649Z,1.62
2023-01-29T16:09:58.891Z,1.56
2023-01-29T16:12:26.081Z,1.56
2023-01-29T16:14:54.421Z,1.58
2023-01-29T16:17:30.149Z,1.59
2023-01-29T16:19:59.318Z,1.63
2023-01-29T16:22:30.627Z,1.58
2023-01-29T16:25:01.504Z,1.60
2023-01-29T16:27:29.198Z,1.58
2023-01-29T16:29:56.495Z,1.61
2023-01-29T16:32:23.663Z,1.63
2023-01-29T16:34:57.125Z,1.61
2023-01-29T16:37:30.371Z,1.64
2023-01-29T16:39:57.897Z,1.62
2023-01-29T16:42:27.392Z,1.60
2023-01-29T16:45:05.437Z,1.62
2023-01-29T16:47:41.393Z,1.65
2023-01-29T16:50:17.339Z,1.63
2023-01-29T16:53:01.382Z,1.60
2023-01-29T16:55:35.774Z,1.63
2023-01-29T16:58:24.677Z,1.59
2023-01-29T17:01:08.328Z,1.58
2023-01-29T17:03:35.816Z,1.64
2023-01-29T17:06:13.475Z,1.61
2023-01-29T17:08:43.704Z,1.59
2023-01-29T17:11:14.256Z,1.59
2023-01-29T17:13:43.886Z,1.65
2023-01-29T17:16:31.918Z,1.61
2023-01-29T17:18:59.502Z,1.58
2023-01-29T17:21:28.236Z,1.57
2023-01-29T17:23:55.341Z,1.52
2023-01-29T17:26:22.927Z,1.55
2023-01-29T17:28:51.026Z,1.51
2023-01-29T17:31:18.210Z,1.52
2023-01-29T17:33:45.874Z,1.47
2023-01-29T17:36:15.567Z,1.55
2023-01-29T17:38:42.704Z,1.55
2023-01-29T17:41:24.319Z,1.55
2023-01-29T17:43:51.753Z,1.58
2023-01-29T17:46:19.084Z,1.60
2023-01-29T17:48:46.642Z,1.59
2023-01-29T17:51:15.711Z,1.59
2023-01-29T17:53:46.282Z,1.58
2023-01-29T17:56:18.994Z,1.58
2023-01-29T17:58:46.160Z,1.56
2023-01-29T18:01:13.396Z,1.51
2023-01-29T18:03:40.673Z,1.54
2023-01-29T18:06:09.138Z,1.55
2023-01-29T18:08:38.387Z,1.51
2023-01-29T18:11:05.569Z,1.50
2023-01-29T18:13:32.783Z,1.46
2023-01-29T18:15:59.997Z,1.50
2023-01-29T18:18:27.242Z,1.46
2023-01-29T18:20:54.434Z,1.50
2023-01-29T18:23:21.964Z,1.50
2023-01-29T18:25:49.229Z,1.48
2023-01-29T18:28:17.583Z,1.50
2023-01-29T18:30:47.769Z,1.48
2023-01-29T18:33:15.797Z,1.50
2023-01-29T18:35:48.184Z,1.49
2023-01-29T18:38:16.168Z,1.46
2023-01-29T18:40:43.683Z,1.49
2023-01-29T18:43:10.848Z,1.43
2023-01-29T18:45:38.292Z,1.42
2023-01-29T18:48:05.815Z,1.47
2023-01-29T18:50:33.242Z,1.51
2023-01-29T18:53:00.658Z,1.46
2023-01-29T18:55:27.872Z,1.52
2023-01-29T18:58:28.407Z,1.53
2023-01-29T19:00:43.694Z,1.43
2023-01-29T19:03:11.156Z,1.47
2023-01-29T19:05:38.695Z,1.42
2023-01-29T19:08:06.019Z,1.34
2023-01-29T19:10:33.669Z,1.34
2023-01-29T19:13:01.042Z,1.34
2023-01-29T19:15:28.208Z,1.38
2023-01-29T19:17:56.248Z,1.36
2023-01-29T19:20:23.461Z,1.44
2023-01-29T19:22:54.752Z,1.47
2023-01-29T19:26:13.415Z,1.45
2023-01-29T19:28:41.118Z,1.42
2023-01-29T19:31:09.341Z,1.34
2023-01-29T19:33:36.758Z,1.38
2023-01-29T19:36:04.203Z,1.38
2023-01-29T19:38:33.586Z,1.44
2023-01-29T19:41:00.782Z,1.41
2023-01-29T19:43:31.657Z,1.42
2023-01-29T19:46:00.072Z,1.35
2023-01-29T19:48:28.190Z,1.35
2023-01-29T19:51:00.688Z,1.33
2023-01-29T19:53:28.742Z,1.38
2023-01-29T19:56:04.338Z,1.44
2023-01-29T19:58:32.666Z,1.38
2023-01-29T20:01:02.065Z,1.40
2023-01-29T20:03:29.800Z,1.44
2023-01-29T20:06:03.283Z,1.43
2023-01-29T20:08:30.966Z,1.45
2023-01-29T20:10:58.346Z,1.57
2023-01-29T20:13:25.614Z,1.48
2023-01-29T20:15:53.132Z,1.46
2023-01-29T20:18:20.394Z,1.42
2023-01-29T20:20:49.766Z,1.47
2023-01-29T20:23:25.068Z,1.40
2023-01-29T20:26:02.817Z,1.39
2023-01-29T20:28:29.927Z,1.41
2023-01-29T20:30:58.232Z,1.43
2023-01-29T20:33:26.164Z,1.45
2023-01-29T20:35:57.487Z,1.39
2023-01-29T20:38:30.079Z,1.35
2023-01-29T20:41:04.195Z,1.35
2023-01-29T20:43:31.847Z,1.42
2023-01-29T20:45:59.475Z,1.42
2023-01-29T20:48:27.071Z,1.40
2023-01-29T20:50:55.309Z,1.33
2023-01-29T20:53:22.821Z,1.28
2023-01-29T20:55:50.412Z,1.28
2023-01-29T20:58:17.618Z,1.26
2023-01-29T21:00:44.796Z,1.28
2023-01-29T21:03:11.950Z,1.33
2023-01-29T21:05:39.089Z,1.35
2023-01-29T21:08:06.281Z,1.30
2023-01-29T21:10:33.443Z,1.34
2023-01-29T21:13:00.694Z,1.34
2023-01-29T21:15:28.009Z,1.31
2023-01-29T21:17:55.368Z,1.33
2023-01-29T21:20:22.573Z,1.32
2023-01-29T21:22:49.768Z,1.32
2023-01-29T21:25:20.091Z,1.34
2023-01-29T21:27:47.367Z,1.29
2023-01-29T21:30:14.886Z,1.29
2023-01-29T21:32:42.450Z,1.33
2023-01-29T21:35:10.342Z,1.35
2023-01-29T21:37:37.923Z,1.34
2023-01-29T21:40:06.351Z,1.35
2023-01-29T21:42:52.363Z,1.36
2023-01-29T21:45:19.542Z,1.34
2023-01-29T21:47:46.757Z,1.38
2023-01-29T21:50:13.971Z,1.33
2023-01-29T21:52:41.109Z,1.34
2023-01-29T21:55:08.552Z,1.37
2023-01-29T21:57:35.722Z,1.36
2023-01-29T22:00:03.167Z,1.31
2023-01-29T22:02:33.453Z,1.39
2023-01-29T22:05:17.480Z,1.37
2023-01-29T22:07:45.194Z,1.40
2023-01-29T22:10:12.923Z,1.40
2023-01-29T22:12:40.298Z,1.35
2023-01-29T22:15:09.199Z,1.37
2023-01-29T22:17:36.507Z,1.41
2023-01-29T22:20:04.076Z,1.40
2023-01-29T22:22:31.477Z,1.40
2023-01-29T22:24:59.427Z,1.33
2023-01-29T22:27:26.597Z,1.35
2023-01-29T22:29:53.739Z,1.33
2023-01-29T22:32:21.065Z,1.33
2023-01-29T22:34:48.238Z,1.27
2023-01-29T22:37:15.546Z,1.27
2023-01-29T22:39:42.694Z,1.34
2023-01-29T22:42:09.861Z,1.32
2023-01-29T22:44:36.999Z,1.31
2023-01-29T22:47:04.096Z,1.30
2023-01-29T22:49:31.496Z,1.29
2023-01-29T22:52:10.452Z,1.29
2023-01-29T22:54:39.387Z,1.35
2023-01-29T22:57:06.921Z,1.33
2023-01-29T22:59:34.156Z,1.31
2023-01-29T23:02:01.489Z,1.29
2023-01-29T23:04:28.700Z,1.33
2023-01-29T23:06:55.991Z,1.27
2023-01-29T23:09:23.115Z,1.33
2023-01-29T23:11:50.288Z,1.29
2023-01-29T23:14:17.589Z,1.31
2023-01-29T23:16:44.811Z,1.35
2023-01-29T23:19:12.237Z,1.32
2023-01-29T23:21:39.762Z,1.26
2023-01-29T23:24:08.585Z,1.25
2023-01-29T23:26:56.529Z,1.21
2023-01-29T23:29:23.676Z,1.20
2023-01-29T23:31:50.835Z,1.21
2023-01-29T23:34:18.175Z,1.17
2023-01-29T23:36:45.332Z,1.19
2023-01-29T23:39:12.483Z,1.15
2023-01-29T23:41:39.663Z,1.15
2023-01-29T23:44:06.937Z,1.16
2023-01-29T23:46:34.131Z,1.18
2023-01-29T23:49:01.619Z,1.22
2023-01-29T23:51:28.998Z,1.21
2023-01-29T23:53:56.127Z,1.20
2023-01-29T23:56:23.367Z,1.22
2023-01-29T23:58:54.749Z,1.30
